Time;durP1;ratioP1;P1;durP2;ratioP2;P2;SDS_P1;SDS_P2;PMS_P1;PMS_P2;Temp;Humidity;BMP_temperature;BMP_pressure;BME280_temperature;BME280_humidity;BME280_pressure;Samples;Min_cycle;Max_cycle;Signal;HPM_P1;HPM_P2
2023/03/19 16:27:14;;;;;;;4.90;2.90;;;;;;;15.66;37.89;97539.06;1264867;67;19571298;-69
2023/03/19 16:29:59;;;;;;;4.95;2.30;;;;;;;15.60;38.05;97547.38;1031450;67;19538268;-72
2023/03/19 16:33:04;;;;;;;2.97;1.85;;;;;;;15.53;37.95;97545.91;1145132;75;19524666;-67
2023/03/19 16:35:53;;;;;;;;;;;;;;;15.17;39.36;97550.63;1083840;75;19759627;-68
2023/03/19 16:39:21;;;;;;;6.50;3.03;;;;;;;15.01;38.89;97554.22;1211656;75;19574532;-68
2023/03/19 16:42:29;;;;;;;2.00;1.50;;;;;;;15.00;38.69;97556.22;1034240;67;19613749;-70
2023/03/19 16:45:28;;;;;;;5.00;2.00;;;;;;;14.98;39.01;97555.25;1030986;67;19543969;-71
2023/03/19 16:48:13;;;;;;;4.70;2.70;;;;;;;14.76;39.49;97554.06;1036603;67;19599664;-69
2023/03/19 16:51:14;;;;;;;3.17;2.08;;;;;;;14.72;39.31;97556.38;1161699;75;19561055;-68
2023/03/19 16:54:12;;;;;;;3.15;2.20;;;;;;;14.67;39.82;97557.88;1146882;75;19496075;-66
2023/03/19 16:57:14;;;;;;;2.13;1.55;;;;;;;14.62;39.74;97568.91;1167407;75;19531510;-67
2023/03/19 17:00:13;;;;;;;2.50;1.58;;;;;;;14.53;39.85;97574.66;1142908;75;19467067;-67
2023/03/19 17:03:18;;;;;;;2.88;1.85;;;;;;;14.39;40.43;97579.19;1151859;75;19661230;-67
2023/03/19 17:06:14;;;;;;;3.83;1.33;;;;;;;14.37;39.99;97581.72;1093809;75;19537983;-68
2023/03/19 17:09:08;;;;;;;3.63;2.13;;;;;;;14.26;40.61;97580.47;1137794;75;19548496;-67
2023/03/19 17:12:14;;;;;;;1.42;1.30;;;;;;;14.12;40.92;97583.47;1223604;75;19484413;-66
2023/03/19 17:15:25;;;;;;;2.33;1.38;;;;;;;13.93;41.52;97586.00;1132697;75;19694897;-68
2023/03/19 17:18:22;;;;;;;8.10;4.80;;;;;;;13.69;42.22;97584.47;1033517;75;19529410;-71
2023/03/19 17:21:25;;;;;;;;;;;;;;;13.69;42.65;97595.47;1052663;75;19589861;-67
2023/03/19 17:24:29;;;;;;;3.50;1.60;;;;;;;13.62;42.61;97582.97;1030185;75;19634596;-70
2023/03/19 17:27:14;;;;;;;3.20;2.80;;;;;;;13.65;42.19;97586.72;1032590;67;19613866;-70
2023/03/19 17:30:09;;;;;;;2.70;2.05;;;;;;;13.58;42.60;97593.44;1148403;75;19584055;-66
2023/03/19 17:33:22;;;;;;;2.78;1.90;;;;;;;13.53;42.43;97585.94;1198733;75;19489677;-67
2023/03/19 17:36:09;;;;;;;;;;;;;;;13.59;42.54;97599.72;1046176;75;19550175;-67
2023/03/19 17:39:11;;;;;;;2.53;1.80;;;;;;;13.66;42.50;97599.19;1209182;75;19531766;-68
2023/03/19 17:42:19;;;;;;;2.67;1.60;;;;;;;13.61;43.10;97597.19;1182952;75;19516713;-68
2023/03/19 17:45:12;;;;;;;;;;;;;;;13.57;43.12;97604.97;1073396;75;19626732;-66
2023/03/19 17:48:17;;;;;;;4.65;2.30;;;;;;;13.54;43.08;97603.19;1163617;75;19563168;-66
2023/03/19 17:51:10;;;;;;;2.80;2.20;;;;;;;13.37;43.72;97616.91;1104600;75;19601839;-67
2023/03/19 17:54:11;;;;;;;3.20;1.80;;;;;;;13.29;44.07;97602.88;1192094;75;19592888;-65
2023/03/19 17:57:15;;;;;;;4.15;2.30;;;;;;;13.21;43.29;97613.56;1172885;75;19569588;-67
2023/03/19 18:00:10;;;;;;;7.32;4.40;;;;;;;13.19;44.24;97618.81;1128430;75;19713336;-66
2023/03/19 18:03:12;;;;;;;7.05;4.32;;;;;;;13.25;44.12;97621.56;1194929;75;19665050;-66
2023/03/19 18:06:19;;;;;;;11.63;7.88;;;;;;;13.14;43.97;97621.56;1164150;75;19576062;-67
2023/03/19 18:09:17;;;;;;;;;;;;;;;13.06;44.78;97610.28;1082786;75;19635118;-68
2023/03/19 18:12:08;;;;;;;6.07;4.80;;;;;;;13.08;44.81;97615.28;1102490;75;19647050;-68
2023/03/19 18:15:09;;;;;;;4.38;3.17;;;;;;;13.03;44.89;97622.25;1214699;75;19532007;-67
2023/03/19 18:18:19;;;;;;;7.22;4.15;;;;;;;12.84;45.40;97621.16;1205293;75;19567499;-66
2023/03/19 18:21:12;;;;;;;;;;;;;;;12.88;44.88;97624.44;1081507;75;19552026;-67
2023/03/19 18:24:10;;;;;;;4.60;2.75;;;;;;;12.75;45.62;97620.13;1324299;64;19547658;-68
2023/03/19 18:27:08;;;;;;;4.13;2.80;;;;;;;12.67;46.19;97632.78;1351792;64;19263304;-68
2023/03/19 18:30:13;;;;;;;4.28;2.97;;;;;;;12.57;46.02;97626.75;1218112;75;19584366;-68
2023/03/19 18:33:19;;;;;;;5.82;3.80;;;;;;;12.41;47.58;97632.91;1165427;75;19419885;-67
2023/03/19 18:36:08;;;;;;;4.63;2.37;;;;;;;12.35;47.72;97640.31;1086824;75;19555837;-66
2023/03/19 18:39:15;;;;;;;5.35;2.70;;;;;;;12.34;47.56;97638.84;1211334;75;19599557;-69
2023/03/19 18:42:11;;;;;;;2.85;1.73;;;;;;;12.25;47.22;97645.25;1130370;75;19426762;-66
2023/03/19 18:45:10;;;;;;;4.45;2.70;;;;;;;12.20;47.82;97647.97;940770;64;24542113;-67
2023/03/19 18:48:16;;;;;;;8.82;5.53;;;;;;;12.00;47.69;97651.50;963892;64;24551604;-66
2023/03/19 18:51:12;;;;;;;7.85;5.03;;;;;;;12.04;48.50;97654.78;946629;64;24579804;-68
2023/03/19 18:54:10;;;;;;;9.70;5.40;;;;;;;11.97;47.61;97655.22;1161931;75;19568731;-66
2023/03/19 18:57:11;;;;;;;6.45;3.60;;;;;;;11.90;47.76;97651.66;1178929;75;19758073;-67
2023/03/19 19:00:26;;;;;;;4.57;2.50;;;;;;;11.89;48.35;97655.66;1184237;75;19589654;-69
2023/03/19 19:03:16;;;;;;;3.80;1.90;;;;;;;11.74;49.26;97652.25;1033948;75;19498729;-69
2023/03/19 19:06:09;;;;;;;11.27;7.75;;;;;;;11.08;51.35;97645.53;1127598;75;19485148;-67
2023/03/19 19:09:08;;;;;;;7.82;4.75;;;;;;;11.24;51.20;97652.44;1207549;75;19479834;-68
2023/03/19 19:12:14;;;;;;;7.57;4.35;;;;;;;11.23;50.54;97648.19;1221027;75;19456168;-67
2023/03/19 19:15:26;;;;;;;7.97;5.53;;;;;;;11.02;50.85;97653.69;1143825;75;19550815;-68
2023/03/19 19:18:19;;;;;;;7.70;3.75;;;;;;;11.16;51.20;97660.34;1035419;67;19626075;-69
2023/03/19 19:21:09;;;;;;;;;;;;;;;11.11;50.96;97668.47;1080678;75;19541485;-67
2023/03/19 19:24:08;;;;;;;4.97;3.33;;;;;;;11.05;50.80;97663.66;1213408;75;19498068;-67
2023/03/19 19:27:18;;;;;;;7.97;4.80;;;;;;;10.96;51.13;97661.06;1209611;75;19609094;-66
2023/03/19 19:30:21;;;;;;;8.97;6.40;;;;;;;11.01;51.17;97663.13;1093711;75;19577765;-67
2023/03/19 19:33:22;;;;;;;;;;;;;;;10.84;52.43;97651.94;1064788;64;19608784;-68
2023/03/19 20:40:14;;;;;;;4.90;3.55;;;;;;;9.65;55.65;97692.28;1265806;67;19523954;-70
2023/03/19 20:43:03;;;;;;;4.50;2.80;;;;;;;9.59;54.82;97694.91;1029212;67;19634864;-71
2023/03/19 20:46:00;;;;;;;2.92;2.13;;;;;;;9.54;54.63;97690.06;1099674;75;19480064;-69
2023/03/19 20:49:00;;;;;;;4.45;2.45;;;;;;;9.46;55.89;97693.66;1137928;75;19685189;-68
2023/03/19 20:51:58;;;;;;;4.13;3.15;;;;;;;9.28;56.66;97695.28;1145591;75;19601032;-68
2023/03/19 20:54:59;;;;;;;6.30;4.30;;;;;;;9.12;57.42;97687.50;1166625;75;19702287;-67
2023/03/19 20:58:02;;;;;;;5.05;3.47;;;;;;;9.08;56.96;97697.84;1151333;75;19547028;-69
2023/03/19 21:00:59;;;;;;;6.68;5.00;;;;;;;9.07;56.29;97699.06;1114740;75;19677586;-68
2023/03/19 21:03:58;;;;;;;7.93;5.65;;;;;;;8.95;56.59;97704.28;1150377;75;19567916;-69
2023/03/19 21:06:58;;;;;;;9.15;5.93;;;;;;;8.93;56.78;97714.16;1160993;75;19577949;-69
2023/03/19 21:09:59;;;;;;;7.38;5.50;;;;;;;8.86;56.85;97700.84;1161192;75;19588835;-68
2023/03/19 21:13:04;;;;;;;8.20;5.88;;;;;;;8.72;57.70;97703.03;1155374;75;19594043;-67
2023/03/19 21:15:58;;;;;;;10.63;6.60;;;;;;;8.62;56.68;97698.06;1095653;75;19604508;-67
2023/03/19 21:18:59;;;;;;;11.25;6.85;;;;;;;8.60;57.62;97697.78;1166253;75;19636229;-68
2023/03/19 21:21:58;;;;;;;6.63;4.97;;;;;;;8.52;57.45;97705.53;1155960;75;19630776;-68
2023/03/19 21:25:05;;;;;;;8.43;5.32;;;;;;;8.36;59.02;97706.63;1165109;75;19582587;-68
2023/03/19 21:28:03;;;;;;;;;;;;;;;8.25;59.53;97703.59;1078146;75;19542101;-67
2023/03/19 21:30:59;;;;;;;8.25;5.07;;;;;;;8.11;59.76;97713.19;1104646;75;19612250;-67
2023/03/19 21:33:58;;;;;;;6.13;4.15;;;;;;;8.16;59.80;97718.03;1159673;75;19522735;-67
2023/03/19 21:36:58;;;;;;;11.15;4.07;;;;;;;8.20;59.36;97715.91;1168181;75;19574448;-68
2023/03/19 21:39:58;;;;;;;4.90;3.00;;;;;;;8.14;59.03;97717.72;1157937;75;19643291;-69
2023/03/19 21:43:04;;;;;;;4.63;3.53;;;;;;;8.04;59.51;97716.25;1167040;75;19570405;-68
2023/03/19 21:45:59;;;;;;;7.60;5.00;;;;;;;7.82;61.03;97724.59;1091478;75;19609779;-68
2023/03/19 21:49:00;;;;;;;11.50;7.25;;;;;;;7.75;61.03;97722.19;1162328;75;19590970;-66
2023/03/19 21:51:58;;;;;;;5.65;4.05;;;;;;;7.68;61.13;97723.97;1138282;75;19676346;-67
2023/03/19 21:54:58;;;;;;;5.85;4.00;;;;;;;7.66;60.50;97720.94;1160771;75;19591249;-67
2023/03/19 21:58:03;;;;;;;3.92;3.00;;;;;;;7.75;60.70;97720.19;1161677;75;19601230;-67
2023/03/19 22:00:58;;;;;;;8.30;3.28;;;;;;;7.65;61.14;97711.28;1101746;75;19567181;-68
2023/03/19 22:03:59;;;;;;;4.28;2.95;;;;;;;7.60;60.38;97702.94;1163060;75;19572210;-67
2023/03/19 22:06:58;;;;;;;5.45;3.42;;;;;;;7.49;61.13;97700.69;1146618;75;19662533;-68
2023/03/19 22:09:58;;;;;;;3.30;2.42;;;;;;;7.51;60.50;97716.56;1159513;75;19698039;-69
2023/03/19 22:12:58;;;;;;;4.78;3.33;;;;;;;7.44;60.96;97699.31;1162657;75;19558474;-68
2023/03/19 22:16:02;;;;;;;3.45;2.58;;;;;;;7.32;61.83;97707.63;1154647;75;19664170;-67
2023/03/19 22:18:58;;;;;;;4.93;3.35;;;;;;;7.20;62.36;97707.31;1120867;75;19579412;-67
2023/03/19 22:21:58;;;;;;;4.10;3.15;;;;;;;7.18;62.45;97704.25;1166522;75;19510122;-69
2023/03/19 22:24:59;;;;;;;6.82;3.95;;;;;;;7.18;62.01;97709.72;1164702;75;19595506;-67
2023/03/19 22:27:59;;;;;;;7.30;3.25;;;;;;;7.09;62.05;97701.53;1160451;75;19556055;-67
2023/03/19 22:31:02;;;;;;;3.38;2.40;;;;;;;7.13;62.07;97704.13;1149774;75;19741958;-68
2023/03/19 22:33:59;;;;;;;3.53;2.53;;;;;;;7.09;61.72;97708.94;1115278;75;19648067;-68
2023/03/19 22:36:58;;;;;;;3.17;2.47;;;;;;;7.07;61.47;97720.28;1154804;75;19658588;-67
2023/03/19 22:39:59;;;;;;;4.30;2.78;;;;;;;7.00;62.21;97715.88;1158687;75;19619147;-68
2023/03/19 22:42:58;;;;;;;9.80;6.05;;;;;;;6.88;63.41;97716.75;1154038;75;19654530;-68
2023/03/19 22:46:05;;;;;;;4.72;3.38;;;;;;;6.91;62.30;97720.56;1161273;75;19564976;-67
2023/03/19 22:48:58;;;;;;;;;;;;;;;6.87;62.62;97722.66;1074173;75;19649993;-68
2023/03/19 22:51:59;;;;;;;6.60;5.00;;;;;;;6.79;62.99;97725.66;1162024;75;19585991;-68
2023/03/19 22:54:58;;;;;;;6.28;4.18;;;;;;;6.78;62.43;97726.09;1154519;75;19746933;-66
2023/03/19 22:57:58;;;;;;;3.17;2.60;;;;;;;6.76;62.00;97731.22;1160003;75;19515864;-69
2023/03/19 23:01:02;;;;;;;2.92;2.35;;;;;;;6.72;63.90;97730.59;1160867;75;19576174;-69
2023/03/19 23:03:58;;;;;;;7.82;5.60;;;;;;;6.62;63.76;97737.97;1126802;75;19503406;-68
2023/03/19 23:07:01;;;;;;;6.63;5.80;;;;;;;6.57;63.69;97731.16;1157373;75;19617294;-67
2023/03/19 23:09:59;;;;;;;5.88;4.05;;;;;;;6.52;63.08;97726.28;1122538;75;19683059;-68
2023/03/19 23:12:59;;;;;;;4.13;3.15;;;;;;;6.50;63.37;97727.94;1147894;75;19643072;-68
2023/03/19 23:16:03;;;;;;;5.93;3.88;;;;;;;6.44;63.37;97727.75;1157281;75;19653506;-69
2023/03/19 23:18:58;;;;;;;3.33;3.00;;;;;;;6.39;64.22;97722.91;1112167;75;19580310;-68
2023/03/19 23:21:59;;;;;;;5.20;4.05;;;;;;;6.27;65.20;97726.47;1162497;75;19624861;-68
2023/03/19 23:24:59;;;;;;;5.25;4.45;;;;;;;6.17;66.21;97729.13;1154277;75;19580145;-67
2023/03/19 23:28:02;;;;;;;7.70;5.90;;;;;;;6.06;66.13;97720.63;1153591;75;19637237;-66
2023/03/19 23:31:03;;;;;;;8.48;6.22;;;;;;;6.07;65.92;97726.81;1113415;75;19526585;-67
2023/03/19 23:33:58;;;;;;;6.22;4.97;;;;;;;6.02;66.01;97728.13;1108457;75;19566876;-69
2023/03/19 23:36:59;;;;;;;3.90;3.00;;;;;;;6.01;66.22;97734.75;1162442;75;19647048;-67
2023/03/19 23:39:58;;;;;;;3.58;3.15;;;;;;;6.03;65.40;97723.44;1157950;75;19632553;-70
2023/03/19 23:43:00;;;;;;;3.28;2.60;;;;;;;6.01;66.46;97732.03;1158096;75;19543028;-67
2023/03/19 23:46:02;;;;;;;4.45;2.67;;;;;;;5.93;66.43;97734.22;1144425;75;19753441;-68
2023/03/19 23:48:59;;;;;;;1.98;1.83;;;;;;;5.94;66.45;97735.78;1120026;75;19585091;-68
2023/03/19 23:51:59;;;;;;;3.17;2.50;;;;;;;5.98;65.88;97732.91;1149975;75;19624956;-67
2023/03/19 23:54:58;;;;;;;5.05;3.38;;;;;;;5.92;65.99;97735.44;1158631;75;19515254;-68
2023/03/19 23:57:59;;;;;;;5.07;3.85;;;;;;;5.87;66.20;97735.22;1155124;75;19720853;-68
